createdAt,value
2017-08-24T00:00:53.265Z,47.20
2017-08-24T00:03:21.113Z,47.10
2017-08-24T00:05:48.936Z,47.00
2017-08-24T00:08:16.684Z,47.10
2017-08-24T00:10:44.435Z,46.90
2017-08-24T00:13:12.191Z,46.80
2017-08-24T00:15:40.027Z,47.10
2017-08-24T00:18:07.861Z,47.30
2017-08-24T00:20:35.633Z,47.30
2017-08-24T00:23:03.396Z,47.70
2017-08-24T00:25:31.233Z,47.80
2017-08-24T00:27:59.058Z,47.70
2017-08-24T00:30:26.810Z,47.50
2017-08-24T00:32:54.602Z,47.70
2017-08-24T00:35:22.444Z,47.90
2017-08-24T00:37:50.289Z,48.00
2017-08-24T00:40:18.065Z,48.30
2017-08-24T00:42:45.878Z,48.40
2017-08-24T00:45:13.694Z,48.80
2017-08-24T00:47:41.453Z,49.10
2017-08-24T00:50:09.282Z,49.50
2017-08-24T00:52:37.050Z,49.60
2017-08-24T00:55:04.897Z,50.00
2017-08-24T00:57:32.720Z,50.20
2017-08-24T01:00:00.464Z,50.20
2017-08-24T01:02:28.283Z,50.10
2017-08-24T01:04:56.111Z,50.10
2017-08-24T01:07:23.922Z,50.10
2017-08-24T01:09:51.776Z,50.30
2017-08-24T01:12:19.551Z,50.50
2017-08-24T01:14:47.313Z,50.60
2017-08-24T01:17:15.086Z,50.90
2017-08-24T01:19:42.889Z,51.00
2017-08-24T01:22:10.700Z,51.30
2017-08-24T01:24:38.467Z,51.10
2017-08-24T01:27:06.256Z,51.30
2017-08-24T01:32:06.774Z,51.70
2017-08-24T01:34:34.521Z,51.80
2017-08-24T01:37:02.274Z,51.90
2017-08-24T01:39:30.061Z,51.70
2017-08-24T01:41:57.792Z,51.90
2017-08-24T01:44:25.559Z,51.80
2017-08-24T01:46:57.215Z,51.80
2017-08-24T01:49:24.992Z,51.90
2017-08-24T01:51:52.801Z,51.90
2017-08-24T01:54:20.639Z,52.10
2017-08-24T01:56:48.461Z,52.10
2017-08-24T01:59:16.209Z,51.30
2017-08-24T02:01:43.984Z,51.40
2017-08-24T02:04:11.829Z,51.70
2017-08-24T02:06:39.654Z,51.20
2017-08-24T02:09:07.440Z,51.20
2017-08-24T02:11:35.248Z,50.20
2017-08-24T02:14:03.057Z,49.50
2017-08-24T02:16:30.821Z,49.10
2017-08-24T02:18:58.574Z,49.50
2017-08-24T02:21:26.381Z,49.00
2017-08-24T02:23:54.208Z,49.20
2017-08-24T02:26:22.015Z,49.10
2017-08-24T02:28:49.782Z,49.20
2017-08-24T02:31:19.285Z,49.10
2017-08-24T02:33:47.087Z,48.20
2017-08-24T02:36:14.903Z,47.60
2017-08-24T02:38:42.658Z,47.40
2017-08-24T02:41:10.362Z,48.40
2017-08-24T02:43:38.104Z,48.30
2017-08-24T02:46:05.929Z,47.80
2017-08-24T02:48:33.786Z,46.70
2017-08-24T02:51:01.573Z,46.50
2017-08-24T02:53:29.412Z,46.60
2017-08-24T02:55:57.173Z,46.80
2017-08-24T03:00:57.895Z,47.60
2017-08-24T03:03:25.654Z,48.10
2017-08-24T03:05:53.369Z,48.40
2017-08-24T03:08:21.215Z,49.00
2017-08-24T03:10:48.989Z,49.50
2017-08-24T03:13:16.736Z,49.70
2017-08-24T03:15:44.512Z,50.00
2017-08-24T03:18:12.225Z,50.20
2017-08-24T03:20:39.983Z,50.30
2017-08-24T03:23:07.750Z,50.30
2017-08-24T03:25:35.504Z,50.80
2017-08-24T03:28:03.308Z,50.30
2017-08-24T03:30:31.161Z,50.50
2017-08-24T03:32:58.984Z,50.40
2017-08-24T03:35:26.785Z,49.60
2017-08-24T03:37:54.623Z,48.40
2017-08-24T03:40:22.422Z,46.90
2017-08-24T03:42:50.242Z,47.00
2017-08-24T03:45:18.060Z,46.10
2017-08-24T03:47:45.875Z,45.90
2017-08-24T03:50:13.689Z,46.40
2017-08-24T03:52:41.550Z,46.00
2017-08-24T03:55:09.306Z,46.20
2017-08-24T03:57:37.059Z,46.30
2017-08-24T04:00:04.887Z,46.30
2017-08-24T04:02:32.638Z,45.90
2017-08-24T04:05:00.397Z,46.00
2017-08-24T04:07:28.255Z,45.50
2017-08-24T04:09:56.032Z,45.80
2017-08-24T04:12:23.802Z,45.60
2017-08-24T04:14:51.609Z,46.40
2017-08-24T04:17:19.371Z,47.10
2017-08-24T04:19:47.131Z,48.10
2017-08-24T04:22:14.949Z,48.00
2017-08-24T04:24:42.754Z,48.70
2017-08-24T04:27:10.514Z,49.30
2017-08-24T04:29:38.321Z,48.40
2017-08-24T04:32:06.101Z,49.20
2017-08-24T04:34:33.860Z,48.80
2017-08-24T04:37:01.711Z,48.60
2017-08-24T04:39:29.543Z,48.60
2017-08-24T04:41:57.358Z,49.80
2017-08-24T04:44:25.128Z,49.10
2017-08-24T04:46:52.890Z,48.10
2017-08-24T04:49:20.712Z,47.40
2017-08-24T04:51:48.478Z,47.80
2017-08-24T04:54:16.244Z,47.80
2017-08-24T04:56:44.005Z,49.30
2017-08-24T04:59:11.946Z,49.90
2017-08-24T05:01:39.707Z,50.20
2017-08-24T05:04:07.542Z,51.20
2017-08-24T05:06:35.315Z,52.10
2017-08-24T05:09:03.079Z,52.80
2017-08-24T05:11:30.826Z,53.40
2017-08-24T05:13:58.650Z,53.90
2017-08-24T05:16:26.400Z,54.70
2017-08-24T05:18:54.160Z,55.10
2017-08-24T05:21:21.988Z,55.20
2017-08-24T05:23:49.854Z,55.40
2017-08-24T05:26:17.670Z,54.40
2017-08-24T05:28:45.460Z,54.80
2017-08-24T05:31:14.025Z,55.00
2017-08-24T05:33:41.908Z,55.20
2017-08-24T05:36:09.720Z,55.80
2017-08-24T05:38:37.466Z,56.00
2017-08-24T05:41:05.208Z,56.00
2017-08-24T05:43:33.040Z,55.80
2017-08-24T05:46:00.835Z,56.10
2017-08-24T05:48:28.592Z,56.20
2017-08-24T05:50:56.367Z,56.30
2017-08-24T05:53:24.092Z,56.10
2017-08-24T05:55:51.811Z,56.00
2017-08-24T05:58:19.975Z,56.20
2017-08-24T06:00:47.778Z,56.20
2017-08-24T06:03:15.516Z,56.10
2017-08-24T06:05:43.293Z,56.10
2017-08-24T06:08:11.084Z,56.30
2017-08-24T06:10:39.845Z,55.50
2017-08-24T06:13:07.579Z,55.50
2017-08-24T06:15:35.373Z,55.20
2017-08-24T06:18:03.111Z,53.70
2017-08-24T06:20:30.836Z,54.20
2017-08-24T06:22:58.543Z,53.50
2017-08-24T06:25:26.257Z,53.10
2017-08-24T06:27:54.006Z,52.50
2017-08-24T06:30:21.733Z,52.20
2017-08-24T06:32:49.489Z,52.60
2017-08-24T06:35:17.282Z,51.90
2017-08-24T06:37:45.081Z,51.90
2017-08-24T06:40:12.805Z,51.90
2017-08-24T06:42:40.592Z,52.00
2017-08-24T06:45:08.312Z,52.00
2017-08-24T06:47:36.028Z,51.70
2017-08-24T06:50:03.756Z,51.40
2017-08-24T06:52:31.555Z,51.70
2017-08-24T06:54:59.300Z,50.90
2017-08-24T06:57:27.087Z,50.50
2017-08-24T06:59:55.407Z,50.50
2017-08-24T07:02:24.229Z,50.70
2017-08-24T07:04:51.979Z,50.80
2017-08-24T07:07:19.991Z,50.20
2017-08-24T07:09:48.276Z,50.30
2017-08-24T07:12:16.065Z,50.60
2017-08-24T07:14:43.884Z,49.70
2017-08-24T07:17:11.868Z,50.10
2017-08-24T07:19:39.628Z,49.50
2017-08-24T07:22:07.487Z,49.30
2017-08-24T07:24:35.270Z,49.20
2017-08-24T07:27:03.688Z,48.90
2017-08-24T07:32:06.299Z,49.40
2017-08-24T07:34:34.189Z,49.30
2017-08-24T07:37:01.879Z,49.40
2017-08-24T07:39:29.637Z,49.30
2017-08-24T07:41:57.370Z,49.10
2017-08-24T07:44:25.049Z,49.00
2017-08-24T07:46:52.898Z,48.80
2017-08-24T07:49:20.686Z,48.40
2017-08-24T07:51:48.348Z,48.20
2017-08-24T07:54:16.107Z,47.20
2017-08-24T07:56:43.787Z,47.80
2017-08-24T07:59:11.517Z,46.80
2017-08-24T08:01:39.264Z,46.40
2017-08-24T08:04:06.981Z,46.80
2017-08-24T08:06:34.758Z,47.40
2017-08-24T08:09:02.446Z,46.90
2017-08-24T08:11:30.131Z,46.80
2017-08-24T08:13:57.922Z,46.80
2017-08-24T08:16:25.674Z,46.70
2017-08-24T08:18:53.449Z,46.60
2017-08-24T08:21:21.256Z,46.50
2017-08-24T08:23:49.058Z,46.30
2017-08-24T08:26:16.777Z,46.50
2017-08-24T08:28:44.551Z,46.30
2017-08-24T08:31:12.313Z,46.50
2017-08-24T08:33:40.036Z,46.30
2017-08-24T08:36:07.822Z,46.30
2017-08-24T08:38:35.564Z,46.50
2017-08-24T08:41:03.275Z,46.30
2017-08-24T08:43:31.039Z,46.10
2017-08-24T08:45:58.851Z,45.90
2017-08-24T08:48:26.577Z,45.80
2017-08-24T08:50:54.339Z,46.00
2017-08-24T08:53:22.112Z,46.20
2017-08-24T08:55:49.824Z,46.20
2017-08-24T08:58:17.586Z,45.20
2017-08-24T09:00:45.451Z,45.40
2017-08-24T09:03:13.184Z,45.50
2017-08-24T09:05:40.949Z,45.50
2017-08-24T09:08:08.654Z,45.40
2017-08-24T09:10:40.020Z,45.70
2017-08-24T09:13:12.119Z,46.00
2017-08-24T09:15:40.222Z,45.50
2017-08-24T09:18:07.942Z,45.60
2017-08-24T09:20:35.644Z,45.40
2017-08-24T09:23:03.452Z,45.70
2017-08-24T09:25:31.358Z,46.10
2017-08-24T09:27:59.098Z,45.90
2017-08-24T09:30:26.878Z,45.80
2017-08-24T09:32:54.714Z,45.80
2017-08-24T09:35:22.431Z,45.30
2017-08-24T09:37:50.241Z,45.60
2017-08-24T09:40:18.032Z,45.80
2017-08-24T09:42:45.743Z,45.30
2017-08-24T09:45:13.474Z,45.70
2017-08-24T09:47:41.281Z,45.20
2017-08-24T09:50:09.084Z,44.90
2017-08-24T09:52:36.886Z,45.70
2017-08-24T09:55:04.725Z,46.00
2017-08-24T09:57:32.500Z,45.70
2017-08-24T10:00:00.976Z,45.80
2017-08-24T10:02:28.695Z,45.50
2017-08-24T10:04:56.480Z,45.50
2017-08-24T10:07:24.230Z,45.20
2017-08-24T10:09:52.061Z,45.20
2017-08-24T10:12:19.842Z,45.20
2017-08-24T10:14:47.641Z,44.80
2017-08-24T10:17:15.447Z,44.40
2017-08-24T10:19:44.211Z,43.90
2017-08-24T10:22:11.923Z,43.90
2017-08-24T10:24:39.669Z,43.80
2017-08-24T10:27:07.388Z,44.40
2017-08-24T10:29:35.209Z,44.10
2017-08-24T10:32:03.015Z,43.90
2017-08-24T10:34:30.786Z,44.10
2017-08-24T10:36:58.565Z,44.10
2017-08-24T10:39:26.357Z,44.40
2017-08-24T10:41:54.125Z,44.40
2017-08-24T10:44:21.861Z,43.80
2017-08-24T10:46:49.651Z,44.30
2017-08-24T10:49:17.390Z,44.30
2017-08-24T10:51:45.123Z,44.10
2017-08-24T10:54:15.135Z,43.80
2017-08-24T10:56:42.975Z,43.50
2017-08-24T10:59:10.830Z,43.00
2017-08-24T11:01:38.631Z,43.30
2017-08-24T11:04:06.354Z,43.10
2017-08-24T11:06:34.111Z,43.20
2017-08-24T11:09:01.908Z,42.40
2017-08-24T11:11:29.628Z,43.10
2017-08-24T11:13:57.360Z,43.50
2017-08-24T11:16:25.088Z,43.30
2017-08-24T11:18:52.860Z,43.70
2017-08-24T11:21:20.653Z,43.80
2017-08-24T11:23:48.448Z,43.80
2017-08-24T11:26:16.171Z,43.30
2017-08-24T11:28:43.946Z,43.40
2017-08-24T11:31:11.733Z,43.40
2017-08-24T11:33:39.505Z,43.30
2017-08-24T11:36:07.295Z,44.70
2017-08-24T11:38:35.207Z,43.10
2017-08-24T11:41:02.937Z,43.70
2017-08-24T11:43:31.252Z,43.20
2017-08-24T11:48:31.874Z,43.40
2017-08-24T11:50:59.595Z,43.50
2017-08-24T11:53:27.458Z,42.50
2017-08-24T11:55:55.250Z,42.20
2017-08-24T11:58:22.983Z,42.00
2017-08-24T12:00:50.764Z,42.50
2017-08-24T12:03:18.543Z,42.60
2017-08-24T12:05:46.265Z,42.30
2017-08-24T12:08:14.039Z,42.20
2017-08-24T12:10:41.830Z,41.80
2017-08-24T12:13:09.633Z,42.10
2017-08-24T12:15:37.348Z,42.00
2017-08-24T12:18:05.122Z,42.20
2017-08-24T12:20:32.841Z,42.30
2017-08-24T12:23:00.631Z,42.10
2017-08-24T12:25:28.356Z,40.70
2017-08-24T12:27:56.105Z,41.80
2017-08-24T12:30:23.877Z,42.00
2017-08-24T12:32:51.751Z,42.10
2017-08-24T12:35:19.522Z,42.00
2017-08-24T12:37:47.237Z,42.00
2017-08-24T12:40:15.097Z,42.00
2017-08-24T12:42:42.896Z,41.90
2017-08-24T12:45:10.621Z,42.10
2017-08-24T12:47:38.382Z,42.40
2017-08-24T12:50:06.168Z,42.20
2017-08-24T12:52:33.885Z,41.70
2017-08-24T12:55:01.744Z,41.80
2017-08-24T12:57:29.535Z,42.00
2017-08-24T12:59:57.308Z,42.10
2017-08-24T13:02:25.037Z,42.00
2017-08-24T13:04:52.784Z,41.80
2017-08-24T13:07:20.503Z,41.90
2017-08-24T13:09:48.232Z,41.50
2017-08-24T13:12:16.014Z,41.70
2017-08-24T13:14:43.792Z,42.60
2017-08-24T13:17:11.529Z,42.20
2017-08-24T13:19:39.310Z,42.30
2017-08-24T13:22:07.088Z,42.50
2017-08-24T13:24:34.961Z,42.80
2017-08-24T13:27:04.863Z,42.90
2017-08-24T13:29:32.660Z,42.90
2017-08-24T13:32:00.424Z,42.90
2017-08-24T13:34:28.199Z,43.00
2017-08-24T13:36:55.928Z,43.30
2017-08-24T13:39:23.685Z,43.80
2017-08-24T13:41:51.479Z,43.70
2017-08-24T13:44:19.272Z,43.10
2017-08-24T13:46:47.000Z,43.20
2017-08-24T13:49:14.768Z,43.50
2017-08-24T13:51:42.505Z,43.30
2017-08-24T13:54:10.352Z,43.40
2017-08-24T13:56:38.067Z,43.20
2017-08-24T13:59:05.804Z,43.30
2017-08-24T14:01:33.535Z,43.10
2017-08-24T14:04:01.303Z,44.20
2017-08-24T14:06:29.041Z,43.30
2017-08-24T14:08:56.775Z,44.30
2017-08-24T14:11:24.491Z,43.20
2017-08-24T14:13:52.277Z,42.60
2017-08-24T14:16:20.070Z,42.40
2017-08-24T14:18:47.871Z,42.40
2017-08-24T14:21:15.587Z,41.90
2017-08-24T14:23:43.319Z,42.30
2017-08-24T14:26:11.122Z,42.30
2017-08-24T14:28:38.851Z,42.50
2017-08-24T14:31:06.606Z,42.60
2017-08-24T14:33:34.352Z,42.70
2017-08-24T14:36:02.175Z,43.00
2017-08-24T14:38:29.974Z,43.70
2017-08-24T14:40:57.795Z,45.40
2017-08-24T14:43:25.664Z,46.00
2017-08-24T14:45:53.390Z,46.90
2017-08-24T14:48:21.168Z,47.30
2017-08-24T14:50:48.921Z,48.40
2017-08-24T14:53:16.673Z,49.80
2017-08-24T14:55:44.450Z,50.40
2017-08-24T14:58:12.973Z,50.30
2017-08-24T15:00:43.718Z,50.30
2017-08-24T15:03:11.490Z,50.50
2017-08-24T15:05:39.272Z,51.10
2017-08-24T15:08:07.002Z,51.00
2017-08-24T15:10:34.840Z,53.30
2017-08-24T15:13:02.582Z,52.60
2017-08-24T15:15:30.314Z,50.90
2017-08-24T15:17:58.102Z,50.90
2017-08-24T15:20:25.891Z,50.20
2017-08-24T15:22:53.714Z,50.30
2017-08-24T15:25:21.507Z,50.70
2017-08-24T15:27:49.261Z,50.70
2017-08-24T15:30:17.000Z,50.90
2017-08-24T15:32:44.820Z,51.00
2017-08-24T15:35:12.552Z,51.00
2017-08-24T15:37:40.295Z,51.00
2017-08-24T15:40:08.128Z,50.90
2017-08-24T15:42:35.867Z,50.30
2017-08-24T15:45:03.595Z,49.60
2017-08-24T15:47:31.382Z,48.90
2017-08-24T15:49:59.149Z,49.00
2017-08-24T15:52:26.994Z,49.30
2017-08-24T15:54:59.409Z,50.30
2017-08-24T15:57:27.231Z,49.20
2017-08-24T15:59:54.976Z,49.30
2017-08-24T16:02:22.774Z,49.30
2017-08-24T16:04:50.487Z,49.30
2017-08-24T16:07:18.200Z,49.20
2017-08-24T16:09:46.021Z,49.40
2017-08-24T16:12:13.846Z,48.90
2017-08-24T16:14:41.594Z,48.70
2017-08-24T16:17:09.369Z,48.60
2017-08-24T16:19:37.085Z,48.20
2017-08-24T16:22:04.887Z,48.40
2017-08-24T16:24:32.697Z,48.60
2017-08-24T16:27:00.411Z,48.70
2017-08-24T16:29:28.217Z,48.90
2017-08-24T16:31:56.186Z,49.10
2017-08-24T16:34:23.949Z,48.80
2017-08-24T16:36:51.786Z,48.80
2017-08-24T16:39:19.677Z,48.60
2017-08-24T16:41:47.412Z,48.20
2017-08-24T16:44:15.139Z,48.00
2017-08-24T16:46:42.940Z,48.10
2017-08-24T16:49:10.814Z,48.00
2017-08-24T16:51:38.645Z,47.90
2017-08-24T16:54:08.008Z,48.10
2017-08-24T16:56:36.781Z,48.00
2017-08-24T16:59:05.408Z,47.50
2017-08-24T17:01:33.155Z,47.40
2017-08-24T17:04:01.481Z,47.40
2017-08-24T17:06:29.234Z,47.10
2017-08-24T17:08:56.957Z,47.00
2017-08-24T17:11:24.803Z,46.50
2017-08-24T17:13:55.579Z,46.50
2017-08-24T17:16:23.359Z,46.30
2017-08-24T17:18:51.108Z,46.00
2017-08-24T17:21:18.845Z,46.20
2017-08-24T17:23:46.591Z,46.00
2017-08-24T17:26:14.394Z,46.60
2017-08-24T17:28:42.232Z,46.60
2017-08-24T17:31:10.012Z,46.80
2017-08-24T17:33:44.756Z,46.60
2017-08-24T17:36:12.736Z,46.60
2017-08-24T17:38:40.534Z,46.70
2017-08-24T17:41:08.412Z,46.50
2017-08-24T17:43:36.181Z,46.30
2017-08-24T17:46:03.980Z,46.30
2017-08-24T17:48:31.730Z,46.60
2017-08-24T17:50:59.553Z,46.00
2017-08-24T17:53:27.271Z,46.20
2017-08-24T17:55:55.072Z,46.10
2017-08-24T17:58:22.798Z,46.00
2017-08-24T18:00:50.784Z,45.70
2017-08-24T18:03:18.588Z,45.50
2017-08-24T18:05:46.368Z,45.00
2017-08-24T18:08:14.146Z,44.60
2017-08-24T18:10:41.884Z,45.00
2017-08-24T18:13:09.650Z,45.00
2017-08-24T18:15:37.427Z,45.30
2017-08-24T18:18:05.173Z,45.20
2017-08-24T18:20:32.904Z,45.50
2017-08-24T18:23:00.629Z,45.60
2017-08-24T18:25:28.554Z,45.90
2017-08-24T18:27:56.472Z,45.60
2017-08-24T18:30:24.782Z,45.80
2017-08-24T18:32:52.500Z,45.80
2017-08-24T18:35:20.230Z,46.00
2017-08-24T18:37:48.185Z,46.10
2017-08-24T18:40:16.044Z,46.10
2017-08-24T18:42:43.766Z,46.10
2017-08-24T18:45:11.513Z,46.10
2017-08-24T18:47:39.832Z,46.20
2017-08-24T18:50:07.653Z,46.40
2017-08-24T18:52:35.380Z,46.50
2017-08-24T18:55:03.825Z,46.60
2017-08-24T18:57:31.690Z,46.60
2017-08-24T18:59:59.399Z,46.90
2017-08-24T19:02:27.645Z,47.10
2017-08-24T19:04:55.817Z,47.20
2017-08-24T19:07:23.658Z,47.30
2017-08-24T19:09:51.461Z,47.30
2017-08-24T19:12:19.756Z,47.40
2017-08-24T19:14:48.104Z,47.70
2017-08-24T19:17:16.866Z,48.30
2017-08-24T19:19:45.894Z,48.60
2017-08-24T19:22:14.152Z,47.20
2017-08-24T19:24:42.416Z,47.40
2017-08-24T19:27:11.427Z,47.60
2017-08-24T19:29:39.250Z,47.40
2017-08-24T19:32:07.842Z,47.50
2017-08-24T19:34:35.589Z,47.60
2017-08-24T19:37:03.535Z,47.60
2017-08-24T19:39:31.276Z,47.80
2017-08-24T19:41:59.995Z,47.80
2017-08-24T19:44:27.827Z,48.00
2017-08-24T19:46:55.807Z,48.00
2017-08-24T19:49:24.607Z,48.10
2017-08-24T19:51:52.353Z,48.30
2017-08-24T19:54:20.276Z,48.20
2017-08-24T19:56:49.261Z,48.30
2017-08-24T19:59:17.509Z,48.40
2017-08-24T20:01:45.306Z,48.40
2017-08-24T20:04:13.072Z,48.50
2017-08-24T20:06:40.905Z,48.50
2017-08-24T20:09:08.631Z,48.60
2017-08-24T20:11:36.349Z,48.70
2017-08-24T20:14:04.085Z,48.70
2017-08-24T20:16:31.941Z,48.50
2017-08-24T20:18:59.704Z,49.20
2017-08-24T20:21:27.447Z,48.70
2017-08-24T20:23:55.180Z,48.80
2017-08-24T20:26:22.900Z,48.00
2017-08-24T20:28:50.681Z,47.90
2017-08-24T20:31:18.521Z,47.50
2017-08-24T20:33:46.347Z,47.60
2017-08-24T20:36:14.060Z,47.60
2017-08-24T20:38:42.127Z,47.70
2017-08-24T20:41:09.848Z,47.90
2017-08-24T20:43:37.679Z,48.00
2017-08-24T20:46:05.414Z,48.10
2017-08-24T20:48:33.155Z,48.20
2017-08-24T20:51:00.880Z,48.40
2017-08-24T20:53:28.771Z,48.60
2017-08-24T20:55:56.862Z,48.70
2017-08-24T20:58:24.591Z,48.90
2017-08-24T21:00:52.396Z,49.10
2017-08-24T21:03:20.227Z,49.20
2017-08-24T21:05:48.061Z,49.50
2017-08-24T21:08:17.025Z,49.60
2017-08-24T21:10:44.830Z,49.70
2017-08-24T21:13:12.597Z,49.70
2017-08-24T21:15:40.366Z,49.80
2017-08-24T21:18:08.160Z,49.90
2017-08-24T21:20:35.897Z,49.80
2017-08-24T21:23:03.675Z,49.80
2017-08-24T21:25:31.462Z,49.70
2017-08-24T21:27:59.246Z,49.80
2017-08-24T21:30:26.964Z,49.90
2017-08-24T21:32:54.741Z,49.90
2017-08-24T21:35:22.546Z,50.10
2017-08-24T21:37:50.318Z,50.20
2017-08-24T21:40:18.287Z,50.20
2017-08-24T21:42:49.783Z,50.30
2017-08-24T21:45:17.552Z,50.30
2017-08-24T21:47:45.334Z,50.30
2017-08-24T21:50:13.110Z,50.50
2017-08-24T21:52:40.827Z,50.40
2017-08-24T21:55:08.611Z,50.40
2017-08-24T21:57:36.383Z,50.70
2017-08-24T22:00:04.124Z,50.80
2017-08-24T22:02:31.864Z,51.00
2017-08-24T22:04:59.595Z,51.10
2017-08-24T22:07:27.309Z,51.10
2017-08-24T22:09:55.034Z,51.10
2017-08-24T22:12:22.843Z,51.20
2017-08-24T22:14:50.585Z,51.20
2017-08-24T22:17:18.381Z,51.50
2017-08-24T22:19:46.121Z,52.30
2017-08-24T22:22:13.842Z,51.90
2017-08-24T22:24:41.627Z,52.00
2017-08-24T22:27:09.401Z,52.20
2017-08-24T22:29:37.129Z,52.30
2017-08-24T22:32:04.841Z,52.40
2017-08-24T22:34:32.646Z,52.50
2017-08-24T22:37:00.425Z,52.50
2017-08-24T22:39:28.148Z,52.20
2017-08-24T22:41:55.931Z,52.20
2017-08-24T22:44:23.714Z,52.10
2017-08-24T22:46:51.450Z,52.00
2017-08-24T22:49:19.250Z,52.10
2017-08-24T22:51:46.960Z,52.30
2017-08-24T22:54:20.294Z,52.50
2017-08-24T22:56:53.619Z,53.30
2017-08-24T22:59:27.070Z,52.80
2017-08-24T23:02:00.454Z,52.70
2017-08-24T23:04:28.168Z,52.80
2017-08-24T23:06:55.891Z,52.60
2017-08-24T23:09:23.611Z,52.60
2017-08-24T23:11:51.425Z,52.20
2017-08-24T23:14:19.157Z,52.00
2017-08-24T23:16:46.885Z,51.60
2017-08-24T23:19:14.671Z,51.60
2017-08-24T23:21:42.394Z,51.10
2017-08-24T23:24:10.169Z,51.10
2017-08-24T23:26:37.982Z,50.90
2017-08-24T23:29:05.751Z,51.00
2017-08-24T23:31:33.477Z,50.90
2017-08-24T23:34:01.251Z,51.30
2017-08-24T23:36:28.968Z,51.30
2017-08-24T23:38:57.619Z,51.70
2017-08-24T23:41:25.352Z,51.90
2017-08-24T23:43:53.120Z,52.00
2017-08-24T23:46:20.915Z,52.20
2017-08-24T23:48:48.694Z,52.70
2017-08-24T23:51:16.463Z,52.40
2017-08-24T23:53:44.244Z,52.40
2017-08-24T23:56:11.954Z,52.40
2017-08-24T23:58:39.681Z,52.60
